Flight Track Log - Related Links

Times and Time Zones

All times are in EDT time to prevent confusion due to time zone crossing. See the GJS3707 flight status page for this flight to view local times or setup timezone preferences in your user account.

Time Position Orientation Groundspeed Altitude Reporting Facility
EDT Latitude Longitude Course Direction KTS MPH feet Rate Location/Type
Fri 11:06:48 AM 41.9000 -87.9500 270° West 203 234 3,200  Level Chicago TRACON
Fri 11:08:28 AM 41.8286 -88.0481 226° Southwest 255 293 7,000 2,296 Climbing Chicago Center
Fri 11:09:00 AM 41.9667 -88.4866 270° West  Level FlightAware Approximate
Fri 11:09:30 AM 41.8489 -88.1433 286° West 280 322 9,400  Level Chicago Center
Fri 11:10:00 AM 41.9668 -88.6332 270° West  Level FlightAware Approximate
Fri 11:10:32 AM 41.9031 -88.2250 312° West 300 345 11,700  Level Chicago Center
Fri 11:11:00 AM 41.9667 -88.7799 270° West  Level FlightAware Approximate
Fri 11:11:34 AM 41.9389 -88.3250 296° West 312 359 13,000  Level Chicago Center
Fri 11:12:35 AM 41.9831 -88.4367 298° West 339 390 14,700 1,415 Climbing Chicago Center
Fri 11:13:37 AM 42.0100 -88.5631 286° West 358 412 15,900 581 Climbing Chicago Center
Fri 11:14:39 AM 42.0164 -88.7247 273° West 363 418 15,900 823 Level Chicago Center
Fri 11:15:41 AM 42.0247 -88.8597 275° West 365 420 17,600 1,548 Climbing Chicago Center
Fri 11:16:43 AM 42.0364 -88.9947 277° West 367 422 19,100 1,355 Climbing Chicago Center
Fri 11:17:45 AM 42.0508 -89.1331 278° West 375 432 20,400 1,220 Climbing Chicago Center
Fri 11:18:46 AM 42.0667 -89.2828 278° West 401 461 21,600 1,366 Climbing Chicago Center
Fri 11:19:48 AM 42.0808 -89.4611 276° West 411 473 23,200 1,452 Climbing Chicago Center
Fri 11:20:50 AM 42.0969 -89.6139 278° West 414 476 24,600 1,306 Climbing Chicago Center
Fri 11:21:52 AM 42.1142 -89.7672 279° West 415 478 25,900 1,210 Climbing Chicago Center
Fri 11:22:54 AM 42.1311 -89.9172 279° West 415 478 27,100 1,161 Climbing Chicago Center
Fri 11:23:56 AM 42.1489 -90.0717 279° West 417 480 28,300 1,258 Climbing Chicago Center
Fri 11:24:58 AM 42.1711 -90.2556 279° West 418 481 29,700 1,161 Climbing Chicago Center
Fri 11:26:00 AM 42.1889 -90.4094 279° West 419 482 30,700 927 Climbing Chicago Center
Fri 11:27:01 AM 42.2089 -90.5639 280° West 421 484 31,600 780 Climbing Chicago Center
Fri 11:28:03 AM 42.2594 -90.7072 296° West 427 491 32,300 677 Climbing Chicago Center
Fri 11:29:05 AM 42.3083 -90.8519 295° West 428 493 33,000 774 Climbing Chicago Center
Fri 11:30:07 AM 42.3664 -91.0289 294° West 430 495 33,900 484 Climbing Chicago Center
Fri 11:31:09 AM 42.4153 -91.1783 294° West 437 503 34,000 48 Climbing Chicago Center
Fri 11:32:11 AM 42.4658 -91.3289 295° West 439 505 34,000  Level Chicago Center
Fri 11:33:13 AM 42.5156 -91.4836 294° West 445 512 34,000  Level Chicago Center
Fri 11:34:15 AM 42.5658 -91.6389 294° West 448 516 34,000  Level Chicago Center
Fri 11:35:17 AM 42.6164 -91.7956 294° West 448 516 34,000  Level Chicago Center
Fri 11:36:19 AM 42.6656 -91.9511 293° West 446 513 34,000  Level Chicago Center
Fri 11:37:21 AM 42.7239 -92.1342 294° West 441 507 34,000  Level Chicago Center
Fri 11:38:23 AM 42.7703 -92.2842 293° West 435 501 34,000  Level Chicago Center
Fri 11:39:25 AM 42.8178 -92.4342 293° West 435 501 34,000  Level Chicago Center
Fri 11:40:27 AM 42.8639 -92.5825 293° West 430 495 34,000  Level Chicago Center
Fri 11:41:41 AM 42.9206 -92.7653 293° West 435 501 34,000  Level Minneapolis Center
Fri 11:42:43 AM 42.9667 -92.9153 293° West 434 499 34,000  Level Minneapolis Center
Fri 11:43:45 AM 43.0217 -93.0958 293° West 433 498 34,000  Level Minneapolis Center
Fri 11:44:46 AM 43.0678 -93.2467 293° West 433 498 34,000  Level Minneapolis Center
Fri 11:45:48 AM 43.1081 -93.4003 290° West 433 498 34,000  Level Minneapolis Center
Fri 11:46:50 AM 43.1353 -93.5597 283° West 433 498 34,000  Level Minneapolis Center
Fri 11:47:52 AM 43.1603 -93.7214 282° West 436 502 34,000  Level Minneapolis Center
Fri 11:48:54 AM 43.1936 -93.9119 284° West 435 501 34,000  Level Minneapolis Center
Fri 11:49:55 AM 43.2200 -94.0728 283° West 435 501 34,000  Level Minneapolis Center
Fri 11:50:57 AM 43.2494 -94.2303 284° West 434 499 34,000  Level Minneapolis Center
Fri 11:51:59 AM 43.2783 -94.4000 283° West 436 502 34,000  Level Minneapolis Center
Fri 11:53:01 AM 43.3047 -94.5594 283° West 433 498 34,000  Level Minneapolis Center
Fri 11:54:03 AM 43.3308 -94.7197 283° West 432 497 34,000  Level Minneapolis Center
Fri 11:55:05 AM 43.3583 -94.8789 283° West 430 495 34,000  Level Minneapolis Center
Fri 11:56:19 AM 43.3939 -95.1019 282° West 426 490 34,000  Level Minneapolis Center
Fri 11:57:21 AM 43.4186 -95.2608 282° West 426 490 34,000  Level Minneapolis Center
Fri 11:58:23 AM 43.4442 -95.4214 282° West 428 493 34,000  Level Minneapolis Center
Fri 11:59:25 AM 43.4697 -95.5803 283° West 427 491 34,000  Level Minneapolis Center
Fri 12:00:31 PM 43.4992 -95.7722 282° West 426 490 34,000  Level Minneapolis Center
Fri 12:01:32 PM 43.5236 -95.9333 282° West 428 493 34,000  Level Minneapolis Center
Fri 12:02:34 PM 43.5483 -96.0944 282° West 429 494 34,000  Level Minneapolis Center
Fri 12:03:36 PM 43.5719 -96.2547 282° West 427 491 34,000  Level Minneapolis Center
Fri 12:04:38 PM 43.5967 -96.4172 282° West 430 495 34,000  Level Minneapolis Center
Fri 12:05:40 PM 43.6206 -96.5800 282° West 432 497 34,000  Level Minneapolis Center
Fri 12:06:42 PM 43.6433 -96.7400 281° West 427 491 34,000  Level Minneapolis Center
Fri 12:07:44 PM 43.6597 -96.9036 278° West 428 493 34,000  Level Minneapolis Center
Fri 12:08:46 PM 43.6747 -97.1011 276° West 430 495 34,000  Level Minneapolis Center
Fri 12:09:47 PM 43.6864 -97.2664 276° West 432 497 34,000  Level Minneapolis Center
Fri 12:10:49 PM 43.6992 -97.4308 276° West 432 497 34,000  Level Minneapolis Center
Fri 12:11:51 PM 43.7114 -97.5947 276° West 429 494 34,000  Level Minneapolis Center
Fri 12:12:53 PM 43.7231 -97.7578 276° West 428 493 34,000  Level Minneapolis Center
Fri 12:13:55 PM 43.7350 -97.9231 276° West 431 496 34,000  Level Minneapolis Center
Fri 12:14:57 PM 43.7489 -98.1172 276° West 425 489 34,000  Level Minneapolis Center
Fri 12:15:59 PM 43.7597 -98.2794 275° West 424 488 34,000  Level Minneapolis Center
Fri 12:17:01 PM 43.7697 -98.4408 275° West 423 487 34,000  Level Minneapolis Center
Fri 12:18:03 PM 43.7803 -98.6014 275° West 420 483 34,000  Level Minneapolis Center
Fri 12:19:04 PM 43.7911 -98.7550 276° West 420 483 34,000  Level Minneapolis Center
Fri 12:20:06 PM 43.8003 -98.9164 275° West 420 483 34,000  Level Minneapolis Center
Fri 12:21:08 PM 43.8119 -99.1092 275° West 418 481 34,000  Level Minneapolis Center
Fri 12:22:10 PM 43.8208 -99.2706 274° West 419 482 34,000  Level Minneapolis Center
Fri 12:23:12 PM 43.8303 -99.4319 275° West 420 483 34,000  Level Minneapolis Center
Fri 12:24:14 PM 43.8386 -99.5928 274° West 419 482 34,000  Level Minneapolis Center
Fri 12:25:16 PM 43.8472 -99.7536 274° West 418 481 34,000  Level Minneapolis Center
Fri 12:26:17 PM 43.8569 -99.9167 275° West 421 484 34,000  Level Minneapolis Center
Fri 12:27:19 PM 43.8650 -100.0783 274° West 421 484 34,000  Level Minneapolis Center
Fri 12:28:21 PM 43.8739 -100.2706 274° West 419 482 34,000  Level Minneapolis Center
Fri 12:29:23 PM 43.8814 -100.4328 274° West 419 482 34,000  Level Minneapolis Center
Fri 12:30:25 PM 43.8906 -100.5975 274° West 424 488 34,000  Level Minneapolis Center
Fri 12:31:26 PM 43.8972 -100.7606 273° West 424 488 34,000  Level Minneapolis Center
Fri 12:32:28 PM 43.9044 -100.9228 274° West 422 486 34,000  Level Minneapolis Center
Fri 12:33:30 PM 43.9111 -101.0822 273° West 417 480 34,000  Level Minneapolis Center
Fri 12:34:32 PM 43.9172 -101.2433 273° West 416 479 34,000  Level Minneapolis Center
Fri 12:35:43 PM 43.9256 -101.4372 273° West 420 483 34,000  Level Denver Center
Fri 12:36:45 PM 43.9314 -101.5969 273° West 416 479 34,000  Level Denver Center
Fri 12:37:47 PM 43.9361 -101.7567 272° West 415 478 34,000  Level Denver Center
Fri 12:38:49 PM 43.9389 -101.9444 271° West 407 468 34,000  Level Denver Center
Fri 12:39:51 PM 43.9442 -102.1056 273° West 414 476 34,000  Level Denver Center
Fri 12:40:53 PM 43.9508 -102.2686 273° West 419 482 34,000  Level Denver Center
Fri 12:41:55 PM 43.9581 -102.4319 274° West 423 487 34,000  Level Denver Center
Fri 12:42:57 PM 43.9639 -102.5950 273° West 423 487 34,000  Level Denver Center
Fri 12:43:59 PM 43.9681 -102.7569 272° West 422 486 34,000  Level Denver Center
Fri 12:45:01 PM 43.9753 -102.9353 273° West 424 488 34,000  Level Denver Center
Fri 12:46:03 PM 43.9786 -103.1156 272° West 422 486 34,000  Level Denver Center
Fri 12:47:05 PM 43.9808 -103.2675 271° West 417 480 34,000  Level Denver Center
Fri 12:48:07 PM 43.9847 -103.4494 272° West 421 484 34,000  Level Denver Center
Fri 12:49:09 PM 43.9878 -103.6039 272° West 420 483 34,000  Level Denver Center
Fri 12:50:11 PM 43.9908 -103.7831 271° West 419 482 34,000  Level Denver Center
Fri 12:51:13 PM 43.9922 -103.9367 271° West 418 481 34,000  Level Denver Center
Fri 12:52:15 PM 43.9953 -104.1161 271° West 417 480 34,000  Level Denver Center
Fri 12:53:17 PM 43.9972 -104.2694 271° West 417 480 34,000  Level Denver Center
Fri 12:54:19 PM 43.9986 -104.4464 271° West 413 475 34,000  Level Denver Center
Fri 12:55:21 PM 44.0000 -104.6003 271° West 416 479 34,000  Level Denver Center
Fri 12:56:24 PM 44.0011 -104.7789 271° West 416 479 34,000  Level Denver Center
Fri 12:57:26 PM 44.0025 -104.9303 271° West 414 476 34,000  Level Denver Center
Fri 12:58:28 PM 44.0036 -105.1100 271° West 417 480 34,000  Level Denver Center
Fri 12:59:30 PM 44.0036 -105.2633 270° West 417 480 34,000  Level Denver Center
Fri 01:00:32 PM 44.0047 -105.4153 271° West 414 476 34,000  Level Denver Center
Fri 01:01:34 PM 44.0033 -105.5950 269° West 417 480 34,000  Level Denver Center
Fri 01:02:36 PM 44.0050 -105.7467 271° West 414 476 34,000  Level Denver Center
Fri 01:03:38 PM 44.0025 -105.9264 269° West 417 480 34,000  Level Denver Center
Fri 01:04:40 PM 44.0033 -106.0781 270° West 414 476 34,000  Level Denver Center
Fri 01:05:42 PM 44.0011 -106.2581 269° West 417 480 34,000  Level Denver Center
Fri 01:06:44 PM 43.9997 -106.4092 269° West 410 472 34,000  Level Denver Center
Fri 01:07:46 PM 44.0053 -106.5869 273° West 413 475 34,000  Level Denver Center
Fri 01:08:48 PM 44.0114 -106.7361 273° West 406 467 34,000  Level Denver Center
Fri 01:09:50 PM 44.0175 -106.9094 273° West 406 467 34,000 63 Level Denver Center
Fri 01:10:23 PM 44.0192 -106.9831 272° West 400 460 34,100 695 Climbing Salt Lake Center
Fri 01:11:25 PM 44.0261 -107.1614 273° West 409 471 35,100 989 Climbing Salt Lake Center
Fri 01:11:54 PM 44.0292 -107.2378 273° West 410 472 35,600 593 Climbing Denver Center
Fri 01:12:56 PM 44.0339 -107.3878 273° West 407 468 36,000 255 Climbing Denver Center
Fri 01:13:28 PM 44.0361 -107.4631 272° West 407 468 36,000  Level Salt Lake Center
Fri 01:14:29 PM 44.0419 -107.6417 273° West 412 474 36,000  Level Salt Lake Center
Fri 01:15:31 PM 44.0461 -107.7917 272° West 406 467 36,000  Level Salt Lake Center
Fri 01:16:32 PM 44.0506 -107.9639 272° West 400 460 36,000  Level Salt Lake Center
Fri 01:17:34 PM 44.0547 -108.1092 272° West 395 455 36,000  Level Salt Lake Center
Fri 01:18:35 PM 44.0583 -108.2553 272° West 395 455 36,000  Level Salt Lake Center
Fri 01:19:37 PM 44.0628 -108.4239 272° West 390 449 36,000  Level Salt Lake Center
Fri 01:20:39 PM 44.0647 -108.5686 271° West 390 449 36,000  Level Salt Lake Center
Fri 01:21:40 PM 44.0469 -108.7331 262° West 387 445 36,000  Level Salt Lake Center
Fri 01:22:42 PM 44.0367 -108.8756 264° West 387 445 36,000  Level Salt Lake Center
Fri 01:23:43 PM 44.0369 -109.0233 270° West 394 453 36,000  Level Salt Lake Center
Fri 01:24:45 PM 44.0436 -109.1986 273° West 405 466 36,000  Level Salt Lake Center
Fri 01:25:46 PM 44.0486 -109.3503 273° West 410 472 36,000  Level Salt Lake Center
Fri 01:26:48 PM 44.0519 -109.5031 272° West 405 466 36,000  Level Salt Lake Center
Fri 01:27:49 PM 44.0558 -109.6786 272° West 408 470 36,000  Level Salt Lake Center
Fri 01:28:51 PM 44.0606 -109.8303 273° West 411 473 36,000  Level Salt Lake Center
Fri 01:29:52 PM 44.0633 -110.0069 271° West 410 472 36,000  Level Salt Lake Center
Fri 01:30:54 PM 44.0672 -110.1575 272° West 407 468 36,000  Level Salt Lake Center
Fri 01:31:56 PM 44.0700 -110.3339 271° West 408 470 36,000  Level Salt Lake Center
Fri 01:32:57 PM 44.0728 -110.4850 272° West 408 470 36,000  Level Salt Lake Center
Fri 01:33:59 PM 44.0742 -110.6361 271° West 409 471 36,000  Level Salt Lake Center
Fri 01:35:00 PM 44.0781 -110.8125 272° West 408 470 36,000  Level Salt Lake Center
Fri 01:36:02 PM 44.0792 -110.9622 271° West 405 466 36,000  Level Salt Lake Center
Fri 01:37:04 PM 44.0811 -111.1364 271° West 404 465 36,000  Level Salt Lake Center
Fri 01:38:05 PM 44.0836 -111.2836 271° West 398 458 36,000  Level Salt Lake Center
Fri 01:39:07 PM 44.0850 -111.4303 271° West 396 456 36,000  Level Salt Lake Center
Fri 01:40:08 PM 44.0864 -111.6011 271° West 394 453 36,000  Level Salt Lake Center
Fri 01:41:10 PM 44.0867 -111.7456 270° West 390 449 36,000  Level Salt Lake Center
Fri 01:42:12 PM 44.0883 -111.9136 271° West 389 448 36,000  Level Salt Lake Center
Fri 01:43:13 PM 44.0889 -112.0603 270° West 394 453 36,000  Level Salt Lake Center
Fri 01:44:15 PM 44.0867 -112.2022 269° West 386 444 36,000  Level Salt Lake Center
Fri 01:45:17 PM 44.0689 -112.3697 262° West 390 449 36,000  Level Salt Lake Center
Fri 01:46:18 PM 44.0550 -112.5131 262° West 392 451 36,000  Level Salt Lake Center
Fri 01:47:20 PM 44.0344 -112.6803 260° West 393 452 36,000  Level Salt Lake Center
Fri 01:48:22 PM 44.0169 -112.8236 260° West 392 451 36,000  Level Salt Lake Center
Fri 01:49:24 PM 43.9994 -112.9681 260° West 395 455 36,000  Level Salt Lake Center
Fri 01:50:25 PM 43.9800 -113.1386 261° West 399 459 36,000  Level Salt Lake Center
Fri 01:51:27 PM 43.9611 -113.2828 260° West 398 458 36,000  Level Salt Lake Center
Fri 01:52:29 PM 43.9400 -113.4539 260° West 403 464 36,000  Level Salt Lake Center
Fri 01:53:30 PM 43.9225 -113.6031 261° West 411 473 36,000  Level Salt Lake Center
Fri 01:54:32 PM 43.9008 -113.7764 260° West 410 472 36,000 -435 Level Salt Lake Center
Fri 01:55:34 PM 43.8806 -113.9317 260° West 410 472 35,100 -1,452 Descending Salt Lake Center
Fri 01:56:36 PM 43.8619 -114.0817 260° West 412 474 33,000 -2,293 Descending Salt Lake Center
Fri 01:57:37 PM 43.8394 -114.2539 260° West 408 470 30,400 -2,341 Descending Salt Lake Center
Fri 01:58:39 PM 43.8208 -114.3967 260° West 396 456 28,200 -2,032 Descending Salt Lake Center
Fri 01:59:41 PM 43.8022 -114.5369 260° West 388 447 26,200 -2,081 Descending Salt Lake Center
Fri 02:00:43 PM 43.7797 -114.7000 259° West 383 441 23,900 -2,049 Descending Salt Lake Center
Fri 02:01:44 PM 43.7614 -114.8364 260° West 376 433 22,000 -1,902 Descending Salt Lake Center
Fri 02:02:46 PM 43.7400 -114.9922 259° West 369 425 20,000 -1,645 Descending Salt Lake Center
Fri 02:03:48 PM 43.7142 -115.1192 254° West 359 413 18,600 -1,500 Descending Salt Lake Center
Fri 02:04:50 PM 43.6617 -115.2492 241° Southwest 354 407 16,900 -1,645 Descending Salt Lake Center
Fri 02:05:52 PM 43.6189 -115.3756 245° Southwest 352 405 15,200 -1,756 Descending Salt Lake Center
Fri 02:06:53 PM 43.6089 -115.5117 264° West 340 391 13,300 -1,805 Descending Salt Lake Center
Fri 02:07:55 PM 43.5711 -115.6117 242° Southwest 310 357 11,500 -1,548 Descending Salt Lake Center
Fri 02:08:57 PM 43.5200 -115.7061 233° Southwest 295 339 10,100 -1,548 Descending Salt Lake Center
Fri 02:09:59 PM 43.4714 -115.7947 233° Southwest 279 321 8,300 -1,122 Descending Salt Lake Center
Fri 02:11:00 PM 43.4456 -115.8797 247° West 233 268 7,800 -878 Descending Salt Lake Center
Fri 02:12:02 PM 43.4725 -115.9592 295° West 220 253 6,500 -919 Descending Salt Lake Center
Fri 02:13:04 PM 43.4944 -116.0231 295° West 198 228 5,900 -581 Descending Salt Lake Center

Login

Don't have an account? Register now (free) for customized features, flight alerts, and more!